createdAt,value
2023-04-12T00:10:13.765Z,8.40
2023-04-12T00:35:25.045Z,8.90
2023-04-12T00:55:52.565Z,8.30
2023-04-12T01:16:22.563Z,8.30
2023-04-12T01:41:04.621Z,8.50
2023-04-12T02:01:49.063Z,8.60
2023-04-12T02:21:58.724Z,8.50
2023-04-12T03:58:24.008Z,8.50
2023-04-12T04:29:01.991Z,8.60
2023-04-12T05:04:34.712Z,8.70
2023-04-12T05:34:59.913Z,9.30
2023-04-12T06:00:17.600Z,9.50
2023-04-12T06:25:39.597Z,9.70
2023-04-12T06:55:33.865Z,10.00
2023-04-12T07:11:20.175Z,10.40
2023-04-12T07:21:21.360Z,10.30
2023-04-12T07:46:22.031Z,10.90
2023-04-12T08:17:03.435Z,10.80
2023-04-12T08:57:55.325Z,11.00
2023-04-12T09:22:52.593Z,12.40
2023-04-12T09:53:19.734Z,13.40
2023-04-12T10:13:48.666Z,13.20
2023-04-12T10:38:35.374Z,13.00
2023-04-12T10:59:01.007Z,13.90
2023-04-12T11:34:59.669Z,14.80
2023-04-12T11:39:20.234Z,14.50
2023-04-12T12:10:43.594Z,14.60
2023-04-12T12:14:52.326Z,14.50
2023-04-12T12:35:41.362Z,13.70
2023-04-12T13:06:10.901Z,14.40
2023-04-12T13:31:24.078Z,15.80
2023-04-12T13:46:55.173Z,16.20
2023-04-12T14:31:51.766Z,17.00
2023-04-12T14:52:47.585Z,17.70
2023-04-12T15:17:58.334Z,15.20
2023-04-12T16:24:03.489Z,14.20
2023-04-12T16:49:07.574Z,13.20
2023-04-12T17:09:11.714Z,12.80
2023-04-12T17:35:10.432Z,12.10
2023-04-12T18:05:39.521Z,11.60
2023-04-12T18:35:26.196Z,11.20
2023-04-12T19:05:47.182Z,10.50
2023-04-12T19:31:47.655Z,9.90
2023-04-12T20:02:16.517Z,8.70
2023-04-12T20:22:24.035Z,8.10
2023-04-12T20:52:58.999Z,7.50
2023-04-12T21:13:03.740Z,7.40
2023-04-12T21:48:41.976Z,6.50
2023-04-12T22:18:37.808Z,6.00
2023-04-12T22:39:06.217Z,5.50
2023-04-12T22:59:37.222Z,5.40
2023-04-12T23:24:53.424Z,5.00
2023-04-12T23:45:16.919Z,5.10
